Norfolk, Connecticut
Current Conditions -  °F | °C
As of 9:51 PM on Saturday 20 Dec 2014 (Local Time) from KBDL Reporting Station
Overcast Overcast  
Wind Chill: 28°   Ceiling: 4200
Heat Index: 33°   Visibility: 10mi
Dew Point: 25°   Wind: 6mph
Humidity: 72%   Direction: 360°N
Pressure: 30.29"   Gusts: NA
Location:  41.99°N, 73.2°W
Report Text: KBDL 210251Z 36005KT 10SM OVC042 01/M04 A3029 RMK AO2 SLP257 T00061039 53000 $
Loading
Personal Weather Stations






























Interactive Weather Map New forecast layout! Learn more

10-Day Weather Forecast

Advertisements
Track Severe Weather on mobile